createdAt,value
2018-10-01T00:00:19.402Z,1008.84
2018-10-01T00:01:28.049Z,1008.86
2018-10-01T00:02:36.687Z,1008.86
2018-10-01T00:03:45.331Z,1008.81
2018-10-01T00:04:53.968Z,1008.8
2018-10-01T00:06:02.606Z,1008.86
2018-10-01T00:07:11.252Z,1008.8
2018-10-01T00:08:19.898Z,1008.85
2018-10-01T00:09:28.542Z,1008.84
2018-10-01T00:10:37.459Z,1008.8
2018-10-01T00:11:46.104Z,1008.79
2018-10-01T00:12:55.011Z,1008.8
2018-10-01T00:14:03.651Z,1008.75
2018-10-01T00:15:12.286Z,1008.74
2018-10-01T00:16:20.934Z,1008.75
2018-10-01T00:17:29.573Z,1008.77
2018-10-01T00:18:38.221Z,1008.76
2018-10-01T00:19:46.858Z,1008.73
2018-10-01T00:20:55.778Z,1008.77
2018-10-01T00:22:04.412Z,1008.79
2018-10-01T00:23:13.057Z,1008.75
2018-10-01T00:24:21.699Z,1008.76
2018-10-01T00:25:30.335Z,1008.79
2018-10-01T00:26:38.980Z,1008.75
2018-10-01T00:27:47.885Z,1008.76
2018-10-01T00:28:56.796Z,1008.76
2018-10-01T00:30:05.434Z,1008.78
2018-10-01T00:31:14.077Z,1008.82
2018-10-01T00:32:22.989Z,1008.8
2018-10-01T00:33:31.633Z,1008.8
2018-10-01T00:34:40.531Z,1008.81
2018-10-01T00:35:49.172Z,1008.8
2018-10-01T00:36:57.811Z,1008.8
2018-10-01T00:38:06.458Z,1008.78
2018-10-01T00:39:15.104Z,1008.76
2018-10-01T00:40:24.000Z,1008.78
2018-10-01T00:41:32.908Z,1008.76
2018-10-01T00:42:41.544Z,1008.76
2018-10-01T00:43:50.463Z,1008.72
2018-10-01T00:44:59.100Z,1008.71
2018-10-01T00:46:07.750Z,1008.73
2018-10-01T00:47:16.379Z,1008.73
2018-10-01T00:48:25.030Z,1008.72
2018-10-01T00:49:33.665Z,1008.72
2018-10-01T00:50:42.311Z,1008.71
2018-10-01T00:51:50.945Z,1008.72
2018-10-01T00:52:59.862Z,1008.71
2018-10-01T00:54:08.499Z,1008.72
2018-10-01T00:55:17.144Z,1008.69
2018-10-01T00:56:25.774Z,1008.68
2018-10-01T00:57:34.947Z,1008.65
2018-10-01T00:58:43.592Z,1008.65
2018-10-01T00:59:52.237Z,1008.64
2018-10-01T01:01:00.882Z,1008.62
2018-10-01T01:02:09.511Z,1008.6
2018-10-01T01:03:18.200Z,1008.59
2018-10-01T01:04:26.794Z,1008.63
2018-10-01T01:05:35.443Z,1008.58
2018-10-01T01:06:44.075Z,1008.56
2018-10-01T01:07:52.722Z,1008.54
2018-10-01T01:09:01.360Z,1008.53
2018-10-01T01:10:10.009Z,1008.53
2018-10-01T01:11:18.642Z,1008.54
2018-10-01T01:12:27.289Z,1008.51
2018-10-01T01:13:36.193Z,1008.48
2018-10-01T01:14:44.846Z,1008.47
2018-10-01T01:15:53.479Z,1008.46
2018-10-01T01:17:02.117Z,1008.42
2018-10-01T01:18:10.754Z,1008.42
2018-10-01T01:19:19.399Z,1008.45
2018-10-01T01:20:28.046Z,1008.41
2018-10-01T01:21:36.685Z,1008.45
2018-10-01T01:22:45.609Z,1008.49
2018-10-01T01:23:54.237Z,1008.51
2018-10-01T01:25:02.887Z,1008.51
2018-10-01T01:26:11.784Z,1008.53
2018-10-01T01:27:20.433Z,1008.51
2018-10-01T01:28:29.064Z,1008.58
2018-10-01T01:29:37.713Z,1008.54
2018-10-01T01:30:46.354Z,1008.58
2018-10-01T01:31:55.000Z,1008.56
2018-10-01T01:33:03.632Z,1008.58
2018-10-01T01:34:12.534Z,1008.61
2018-10-01T01:35:21.180Z,1008.61
2018-10-01T01:36:29.824Z,1008.62
2018-10-01T01:37:38.467Z,1008.59
2018-10-01T01:38:47.097Z,1008.6
2018-10-01T01:39:55.743Z,1008.6
2018-10-01T01:41:04.395Z,1008.62
2018-10-01T01:42:13.023Z,1008.61
2018-10-01T01:43:21.938Z,1008.64
2018-10-01T01:44:30.576Z,1008.62
2018-10-01T01:45:39.222Z,1008.61
2018-10-01T01:46:48.114Z,1008.6
2018-10-01T01:47:56.764Z,1008.57
2018-10-01T01:49:05.413Z,1008.59
2018-10-01T01:50:14.319Z,1008.62
2018-10-01T01:51:23.216Z,1008.66
2018-10-01T01:52:31.864Z,1008.69
2018-10-01T01:53:40.506Z,1008.7
2018-10-01T01:54:49.150Z,1008.73
2018-10-01T01:55:57.792Z,1008.72
2018-10-01T01:57:06.448Z,1008.75
2018-10-01T01:58:15.094Z,1008.75
2018-10-01T01:59:23.997Z,1008.75
2018-10-01T02:00:32.925Z,1008.76
2018-10-01T02:01:41.558Z,1008.72
2018-10-01T02:02:50.470Z,1008.74
2018-10-01T02:03:59.424Z,1008.72
2018-10-01T02:05:08.024Z,1008.74
2018-10-01T02:06:16.653Z,1008.73
2018-10-01T02:07:25.298Z,1008.78
2018-10-01T02:08:33.937Z,1008.75
2018-10-01T02:09:42.591Z,1008.79
2018-10-01T02:10:51.230Z,1008.83
2018-10-01T02:11:59.865Z,1008.85
2018-10-01T02:13:08.504Z,1008.87
2018-10-01T02:14:17.143Z,1008.84
2018-10-01T02:15:26.059Z,1008.83
2018-10-01T02:16:34.696Z,1008.85
2018-10-01T02:17:43.341Z,1008.89
2018-10-01T02:18:51.973Z,1008.87
2018-10-01T02:20:00.622Z,1008.89
2018-10-01T02:21:09.528Z,1008.87
2018-10-01T02:22:18.172Z,1008.89
2018-10-01T02:23:26.804Z,1008.89
2018-10-01T02:24:35.454Z,1008.89
2018-10-01T02:25:44.375Z,1008.9
2018-10-01T02:26:53.019Z,1008.9
2018-10-01T02:28:01.648Z,1008.89
2018-10-01T02:29:10.289Z,1008.9
2018-10-01T02:30:18.935Z,1008.92
2018-10-01T02:31:28.113Z,1008.89
2018-10-01T02:32:37.020Z,1008.89
2018-10-01T02:33:45.914Z,1008.86
2018-10-01T02:34:54.557Z,1008.9
2018-10-01T02:36:03.461Z,1008.86
2018-10-01T02:37:12.105Z,1008.86
2018-10-01T02:38:20.739Z,1008.91
2018-10-01T02:39:29.383Z,1008.92
2018-10-01T02:40:38.023Z,1008.93
2018-10-01T02:41:46.675Z,1008.92
2018-10-01T02:42:55.312Z,1008.94
2018-10-01T02:44:03.955Z,1008.91
2018-10-01T02:45:12.863Z,1008.92
2018-10-01T02:46:21.510Z,1008.92
2018-10-01T02:47:30.419Z,1008.91
2018-10-01T02:48:39.376Z,1008.87
2018-10-01T02:49:48.015Z,1008.87
2018-10-01T02:50:56.921Z,1008.88
2018-10-01T02:52:05.569Z,1008.9
2018-10-01T02:53:14.735Z,1008.91
2018-10-01T02:54:23.383Z,1008.86
2018-10-01T02:55:32.281Z,1008.86
2018-10-01T02:56:41.189Z,1008.85
2018-10-01T02:57:49.832Z,1008.84
2018-10-01T02:58:58.470Z,1008.84
2018-10-01T03:00:07.372Z,1008.87
2018-10-01T03:01:16.279Z,1008.86
2018-10-01T03:02:25.455Z,1008.83
2018-10-01T03:03:34.626Z,1008.84
2018-10-01T03:04:43.261Z,1008.8
2018-10-01T03:05:52.164Z,1008.82
2018-10-01T03:07:00.807Z,1008.79
2018-10-01T03:08:09.715Z,1008.86
2018-10-01T03:09:18.892Z,1008.82
2018-10-01T03:10:27.806Z,1008.82
2018-10-01T03:11:36.447Z,1008.81
2018-10-01T03:12:45.088Z,1008.83
2018-10-01T03:13:54.001Z,1008.82
2018-10-01T03:15:02.643Z,1008.8
2018-10-01T03:16:11.598Z,1008.79
2018-10-01T03:17:20.502Z,1008.8
2018-10-01T03:18:29.150Z,1008.79
2018-10-01T03:19:37.790Z,1008.8
2018-10-01T03:20:46.704Z,1008.76
2018-10-01T03:21:55.339Z,1008.77
2018-10-01T03:23:03.981Z,1008.76
2018-10-01T03:24:12.628Z,1008.79
2018-10-01T03:25:21.278Z,1008.78
2018-10-01T03:26:29.912Z,1008.76
2018-10-01T03:27:38.546Z,1008.79
2018-10-01T03:28:47.455Z,1008.74
2018-10-01T03:29:56.096Z,1008.76
2018-10-01T03:31:05.006Z,1008.7
2018-10-01T03:32:13.915Z,1008.76
2018-10-01T03:33:22.830Z,1008.78
2018-10-01T03:34:31.472Z,1008.77
2018-10-01T03:35:40.119Z,1008.8
2018-10-01T03:36:49.031Z,1008.75
2018-10-01T03:37:57.920Z,1008.77
2018-10-01T03:39:06.825Z,1008.77
2018-10-01T03:40:15.817Z,1008.75
2018-10-01T03:41:24.378Z,1008.75
2018-10-01T03:42:33.022Z,1008.75
2018-10-01T03:43:41.662Z,1008.78
2018-10-01T03:44:50.307Z,1008.77
2018-10-01T03:45:58.943Z,1008.8
2018-10-01T03:47:07.593Z,1008.77
2018-10-01T03:48:16.233Z,1008.78
2018-10-01T03:49:24.879Z,1008.8
2018-10-01T03:50:33.512Z,1008.81
2018-10-01T03:51:42.163Z,1008.75
2018-10-01T03:52:50.802Z,1008.78
2018-10-01T03:53:59.978Z,1008.77
2018-10-01T03:55:08.610Z,1008.77
2018-10-01T03:56:17.260Z,1008.81
2018-10-01T03:57:25.891Z,1008.81
2018-10-01T03:58:34.802Z,1008.76
2018-10-01T03:59:43.431Z,1008.75
2018-10-01T04:00:52.078Z,1008.76
2018-10-01T04:02:00.723Z,1008.74
2018-10-01T04:03:09.721Z,1008.74
2018-10-01T04:04:18.561Z,1008.76
2018-10-01T04:05:27.181Z,1008.75
2018-10-01T04:06:35.826Z,1008.74
2018-10-01T04:07:44.464Z,1008.75
2018-10-01T04:08:53.657Z,1008.76
2018-10-01T04:10:02.690Z,1008.79
2018-10-01T04:11:11.600Z,1008.82
2018-10-01T04:12:20.235Z,1008.77
2018-10-01T04:13:28.887Z,1008.81
2018-10-01T04:14:38.041Z,1008.8
2018-10-01T04:15:46.955Z,1008.81
2018-10-01T04:16:55.589Z,1008.84
2018-10-01T04:18:04.241Z,1008.81
2018-10-01T04:19:12.887Z,1008.81
2018-10-01T04:20:21.788Z,1008.8
2018-10-01T04:21:30.425Z,1008.82
2018-10-01T04:22:39.105Z,1008.82
2018-10-01T04:23:48.438Z,1008.8
2018-10-01T04:24:57.071Z,1008.81
2018-10-01T04:26:05.717Z,1008.84
2018-10-01T04:27:14.617Z,1008.82
2018-10-01T04:28:23.590Z,1008.82
2018-10-01T04:29:32.487Z,1008.85
2018-10-01T04:30:41.139Z,1008.83
2018-10-01T04:31:49.768Z,1008.8
2018-10-01T04:32:58.415Z,1008.83
2018-10-01T04:34:07.053Z,1008.81
2018-10-01T04:35:15.690Z,1008.85
2018-10-01T04:36:24.328Z,1008.79
2018-10-01T04:37:32.969Z,1008.78
2018-10-01T04:38:41.611Z,1008.82
2018-10-01T04:39:50.254Z,1008.83
2018-10-01T04:40:58.892Z,1008.87
2018-10-01T04:42:07.527Z,1008.85
2018-10-01T04:43:16.169Z,1008.87
2018-10-01T04:44:24.814Z,1008.86
2018-10-01T04:45:33.721Z,1008.89
2018-10-01T04:46:42.393Z,1008.91
2018-10-01T04:47:51.001Z,1008.98
2018-10-01T04:48:59.641Z,1008.95
2018-10-01T04:50:08.286Z,1008.96
2018-10-01T04:51:16.921Z,1008.99
2018-10-01T04:52:25.564Z,1009.03
2018-10-01T04:53:34.463Z,1009
2018-10-01T04:54:43.108Z,1009.09
2018-10-01T04:55:51.748Z,1009.11
2018-10-01T04:57:00.386Z,1009.07
2018-10-01T04:58:09.128Z,1009.08
2018-10-01T04:59:17.661Z,1009.06
2018-10-01T05:00:26.309Z,1009.05
2018-10-01T05:01:35.213Z,1009.08
2018-10-01T05:02:43.849Z,1009.07
2018-10-01T05:03:52.483Z,1009.08
2018-10-01T05:05:01.130Z,1009.12
2018-10-01T05:06:09.800Z,1009.09
2018-10-01T05:07:18.406Z,1009.12
2018-10-01T05:08:27.037Z,1009.14
2018-10-01T05:09:36.219Z,1009.15
2018-10-01T05:10:44.859Z,1009.12
2018-10-01T05:11:53.498Z,1009.15
2018-10-01T05:13:02.137Z,1009.1
2018-10-01T05:14:10.773Z,1009.13
2018-10-01T05:15:19.673Z,1009.12
2018-10-01T05:16:28.316Z,1009.1
2018-10-01T05:17:36.957Z,1009.14
2018-10-01T05:18:45.591Z,1009.14
2018-10-01T05:19:54.229Z,1009.12
2018-10-01T05:21:02.868Z,1009.13
2018-10-01T05:22:11.520Z,1009.14
2018-10-01T05:23:20.153Z,1009.18
2018-10-01T05:24:28.792Z,1009.18
2018-10-01T05:25:37.431Z,1009.16
2018-10-01T05:26:46.078Z,1009.18
2018-10-01T05:27:54.712Z,1009.23
2018-10-01T05:29:03.357Z,1009.26
2018-10-01T05:30:12.256Z,1009.31
2018-10-01T05:31:20.901Z,1009.31
2018-10-01T05:32:29.798Z,1009.33
2018-10-01T05:33:38.436Z,1009.33
2018-10-01T05:34:47.076Z,1009.34
2018-10-01T05:35:55.719Z,1009.36
2018-10-01T05:37:04.355Z,1009.33
2018-10-01T05:38:13.258Z,1009.35
2018-10-01T05:39:21.897Z,1009.37
2018-10-01T05:40:30.537Z,1009.39
2018-10-01T05:41:39.172Z,1009.43
2018-10-01T05:42:47.810Z,1009.45
2018-10-01T05:43:56.450Z,1009.48
2018-10-01T05:45:05.354Z,1009.43
2018-10-01T05:46:13.986Z,1009.47
2018-10-01T05:47:22.632Z,1009.43
2018-10-01T05:48:31.269Z,1009.46
2018-10-01T05:49:39.915Z,1009.46
2018-10-01T05:50:48.552Z,1009.49
2018-10-01T05:51:57.456Z,1009.5
2018-10-01T05:53:06.096Z,1009.54
2018-10-01T05:54:14.729Z,1009.54
2018-10-01T05:55:23.634Z,1009.59
2018-10-01T05:56:32.276Z,1009.57
2018-10-01T05:57:40.938Z,1009.59
2018-10-01T05:58:49.553Z,1009.56
2018-10-01T05:59:58.199Z,1009.59
2018-10-01T06:01:07.093Z,1009.61
2018-10-01T06:02:15.995Z,1009.6
2018-10-01T06:03:24.631Z,1009.6
2018-10-01T06:04:33.287Z,1009.65
2018-10-01T06:05:41.914Z,1009.64
2018-10-01T06:06:50.561Z,1009.67
2018-10-01T06:07:59.190Z,1009.65
2018-10-01T06:09:07.831Z,1009.67
2018-10-01T06:10:16.471Z,1009.69
2018-10-01T06:11:25.113Z,1009.71
2018-10-01T06:12:33.753Z,1009.71
2018-10-01T06:13:42.388Z,1009.74
2018-10-01T06:14:51.030Z,1009.74
2018-10-01T06:15:59.668Z,1009.76
2018-10-01T06:17:08.314Z,1009.78
2018-10-01T06:18:16.953Z,1009.8
2018-10-01T06:19:25.590Z,1009.84
2018-10-01T06:20:34.227Z,1009.82
2018-10-01T06:21:42.870Z,1009.88
2018-10-01T06:22:51.506Z,1009.88
2018-10-01T06:24:00.410Z,1009.87
2018-10-01T06:25:09.325Z,1009.92
2018-10-01T06:26:18.630Z,1009.91
2018-10-01T06:27:27.262Z,1009.92
2018-10-01T06:28:35.899Z,1009.91
2018-10-01T06:29:44.537Z,1009.97
2018-10-01T06:30:53.173Z,1009.96
2018-10-01T06:32:02.080Z,1009.93
2018-10-01T06:33:10.719Z,1009.96
2018-10-01T06:34:19.361Z,1009.97
2018-10-01T06:35:27.991Z,1010
2018-10-01T06:36:36.906Z,1010.01
2018-10-01T06:37:45.801Z,1010
2018-10-01T06:38:54.731Z,1010.03
2018-10-01T06:40:03.628Z,1010.01
2018-10-01T06:41:12.540Z,1009.99
2018-10-01T06:42:21.178Z,1010.04
2018-10-01T06:43:29.820Z,1010.02
2018-10-01T06:44:38.715Z,1009.97
2018-10-01T06:45:47.356Z,1009.98
2018-10-01T06:46:55.999Z,1009.95
2018-10-01T06:48:04.639Z,1009.99
2018-10-01T06:49:13.284Z,1009.98
2018-10-01T06:50:21.915Z,1010
2018-10-01T06:51:30.557Z,1010
2018-10-01T06:52:39.192Z,1010.01
2018-10-01T06:53:47.841Z,1010.01
2018-10-01T06:54:56.471Z,1010.02
2018-10-01T06:56:05.115Z,1010.02
2018-10-01T06:57:13.750Z,1010.02
2018-10-01T06:58:22.663Z,1010.05
2018-10-01T06:59:31.292Z,1010.11
2018-10-01T07:00:39.933Z,1010.1
2018-10-01T07:01:48.571Z,1010.13
2018-10-01T07:02:57.479Z,1010.18
2018-10-01T07:04:06.130Z,1010.17
2018-10-01T07:05:14.766Z,1010.19
2018-10-01T07:06:23.403Z,1010.21
2018-10-01T07:07:32.591Z,1010.23
2018-10-01T07:08:41.244Z,1010.22
2018-10-01T07:09:49.877Z,1010.2
2018-10-01T07:10:58.812Z,1010.2
2018-10-01T07:12:07.780Z,1010.24
2018-10-01T07:13:16.430Z,1010.27
2018-10-01T07:14:25.067Z,1010.25
2018-10-01T07:15:33.719Z,1010.23
2018-10-01T07:16:42.610Z,1010.31
2018-10-01T07:17:51.605Z,1010.25
2018-10-01T07:19:00.246Z,1010.27
2018-10-01T07:20:08.889Z,1010.28
2018-10-01T07:21:17.525Z,1010.29
2018-10-01T07:22:26.254Z,1010.31
2018-10-01T07:23:35.886Z,1010.31
2018-10-01T07:24:44.541Z,1010.31
2018-10-01T07:25:53.184Z,1010.32
2018-10-01T07:27:01.817Z,1010.31
2018-10-01T07:28:10.460Z,1010.33
2018-10-01T07:29:19.096Z,1010.34
2018-10-01T07:30:27.745Z,1010.34
2018-10-01T07:31:36.376Z,1010.4
2018-10-01T07:32:45.014Z,1010.39
2018-10-01T07:33:53.655Z,1010.39
2018-10-01T07:35:02.301Z,1010.44
2018-10-01T07:36:10.937Z,1010.45
2018-10-01T07:37:19.579Z,1010.47
2018-10-01T07:38:28.217Z,1010.48
2018-10-01T07:39:36.861Z,1010.49
2018-10-01T07:40:45.498Z,1010.5
2018-10-01T07:41:54.399Z,1010.51
2018-10-01T07:43:03.037Z,1010.53
2018-10-01T07:44:11.681Z,1010.55
2018-10-01T07:45:20.457Z,1010.52
2018-10-01T07:46:28.999Z,1010.55
2018-10-01T07:47:38.195Z,1010.54
2018-10-01T07:48:47.163Z,1010.49
2018-10-01T07:49:56.067Z,1010.52
2018-10-01T07:51:04.826Z,1010.56
2018-10-01T07:52:13.352Z,1010.51
2018-10-01T07:53:22.056Z,1010.59
2018-10-01T07:54:32.201Z,1010.51
2018-10-01T07:55:41.142Z,1010.51
2018-10-01T07:56:49.789Z,1010.56
2018-10-01T07:57:58.423Z,1010.59
2018-10-01T07:59:07.067Z,1010.62
2018-10-01T08:00:16.010Z,1010.63
2018-10-01T08:01:24.982Z,1010.62
2018-10-01T08:02:33.726Z,1010.57
2018-10-01T08:03:42.263Z,1010.69
2018-10-01T08:04:50.901Z,1010.61
2018-10-01T08:05:59.541Z,1010.72
2018-10-01T08:07:08.187Z,1010.72
2018-10-01T08:08:16.902Z,1010.73
2018-10-01T08:09:25.990Z,1010.73
2018-10-01T08:10:34.590Z,1010.78
2018-10-01T08:11:43.234Z,1010.78
2018-10-01T08:12:51.870Z,1010.81
2018-10-01T08:14:00.787Z,1010.78
2018-10-01T08:15:09.435Z,1010.8
2018-10-01T08:16:18.080Z,1010.85
2018-10-01T08:17:26.716Z,1010.83
2018-10-01T08:18:35.357Z,1010.87
2018-10-01T08:19:43.994Z,1010.87
2018-10-01T08:20:52.633Z,1010.87
2018-10-01T08:22:01.279Z,1010.87
2018-10-01T08:23:09.925Z,1010.84
2018-10-01T08:24:18.568Z,1010.86
2018-10-01T08:25:27.470Z,1010.93
2018-10-01T08:26:36.141Z,1010.87
2018-10-01T08:27:44.756Z,1010.9
2018-10-01T08:28:53.395Z,1010.94
2018-10-01T08:30:03.008Z,1010.95
2018-10-01T08:31:11.549Z,1010.94
2018-10-01T08:32:20.233Z,1010.99
2018-10-01T08:33:29.119Z,1011.04
2018-10-01T08:34:37.749Z,1011.04
2018-10-01T08:35:46.393Z,1011.07
2018-10-01T08:36:55.044Z,1011.02
2018-10-01T08:38:03.956Z,1011.09
2018-10-01T08:39:12.592Z,1011.02
2018-10-01T08:40:21.228Z,1011.06
2018-10-01T08:41:30.175Z,1011.16
2018-10-01T08:42:39.218Z,1011.09
2018-10-01T08:43:47.907Z,1011.12
2018-10-01T08:44:57.188Z,1011.17
2018-10-01T08:46:06.102Z,1011.17
2018-10-01T08:47:14.864Z,1011.16
2018-10-01T08:48:24.337Z,1011.17
2018-10-01T08:49:32.963Z,1011.26
2018-10-01T08:50:41.867Z,1011.3
2018-10-01T08:51:50.660Z,1011.28
2018-10-01T08:52:59.475Z,1011.23
2018-10-01T08:54:08.103Z,1011.3
2018-10-01T08:55:17.000Z,1011.24
2018-10-01T08:56:25.917Z,1011.28
2018-10-01T08:57:34.955Z,1011.33
2018-10-01T08:58:43.608Z,1011.31
2018-10-01T08:59:52.247Z,1011.32
2018-10-01T09:01:00.935Z,1011.32
2018-10-01T09:02:09.642Z,1011.3
2018-10-01T09:03:18.562Z,1011.35
2018-10-01T09:04:27.208Z,1011.37
2018-10-01T09:05:35.936Z,1011.35
2018-10-01T09:06:44.533Z,1011.34
2018-10-01T09:07:53.633Z,1011.36
2018-10-01T09:09:02.272Z,1011.35
2018-10-01T09:10:10.917Z,1011.34
2018-10-01T09:11:19.583Z,1011.36
2018-10-01T09:12:28.193Z,1011.3
2018-10-01T09:13:36.837Z,1011.35
2018-10-01T09:14:45.497Z,1011.37
2018-10-01T09:15:54.420Z,1011.42
2018-10-01T09:17:03.115Z,1011.4
2018-10-01T09:18:12.412Z,1011.34
2018-10-01T09:19:21.041Z,1011.42
2018-10-01T09:20:29.704Z,1011.41
2018-10-01T09:21:38.398Z,1011.36
2018-10-01T09:22:46.981Z,1011.4
2018-10-01T09:23:55.878Z,1011.36
2018-10-01T09:25:04.798Z,1011.47
2018-10-01T09:26:13.506Z,1011.46
2018-10-01T09:27:22.077Z,1011.47
2018-10-01T09:28:30.724Z,1011.49
2018-10-01T09:29:39.460Z,1011.59
2018-10-01T09:30:48.067Z,1011.59
2018-10-01T09:31:56.693Z,1011.52
2018-10-01T09:33:05.292Z,1011.49
2018-10-01T09:34:13.940Z,1011.49
2018-10-01T09:35:22.640Z,1011.47
2018-10-01T09:36:32.253Z,1011.44
2018-10-01T09:37:40.899Z,1011.52
2018-10-01T09:38:49.699Z,1011.46
2018-10-01T09:39:58.331Z,1011.44
2018-10-01T09:41:06.980Z,1011.45
2018-10-01T09:42:15.906Z,1011.41
2018-10-01T09:43:24.974Z,1011.4
2018-10-01T09:44:33.672Z,1011.46
2018-10-01T09:45:42.255Z,1011.46
2018-10-01T09:46:50.897Z,1011.54
2018-10-01T09:47:59.612Z,1011.54
2018-10-01T09:49:08.200Z,1011.58
2018-10-01T09:50:16.851Z,1011.46
2018-10-01T09:51:25.548Z,1011.47
2018-10-01T09:52:34.579Z,1011.51
2018-10-01T09:53:43.180Z,1011.53
2018-10-01T09:54:52.560Z,1011.5
2018-10-01T09:56:01.227Z,1011.57
2018-10-01T09:57:10.186Z,1011.53
2018-10-01T09:58:19.128Z,1011.41
2018-10-01T09:59:27.558Z,1011.44
2018-10-01T10:00:36.468Z,1011.46
2018-10-01T10:01:45.137Z,1011.41
2018-10-01T10:02:54.041Z,1011.43
2018-10-01T10:04:02.775Z,1011.48
2018-10-01T10:05:11.753Z,1011.47
2018-10-01T10:06:20.387Z,1011.51
2018-10-01T10:07:29.031Z,1011.56
2018-10-01T10:08:37.757Z,1011.47
2018-10-01T10:09:46.323Z,1011.58
2018-10-01T10:10:54.966Z,1011.55
2018-10-01T10:12:03.599Z,1011.53
2018-10-01T10:13:12.246Z,1011.58
2018-10-01T10:14:21.176Z,1011.52
2018-10-01T10:15:29.810Z,1011.56
2018-10-01T10:16:38.469Z,1011.51
2018-10-01T10:17:47.098Z,1011.52
2018-10-01T10:18:56.013Z,1011.44
2018-10-01T10:20:04.706Z,1011.51
2018-10-01T10:21:13.297Z,1011.51
2018-10-01T10:22:22.278Z,1011.47
2018-10-01T10:23:31.215Z,1011.51
2018-10-01T10:24:39.866Z,1011.54
2018-10-01T10:25:48.507Z,1011.61
2018-10-01T10:26:57.472Z,1011.56
2018-10-01T10:28:06.434Z,1011.52
2018-10-01T10:29:15.009Z,1011.45
2018-10-01T10:30:23.661Z,1011.52
2018-10-01T10:31:32.300Z,1011.58
2018-10-01T10:32:40.943Z,1011.57
2018-10-01T10:33:49.579Z,1011.62
2018-10-01T10:34:58.225Z,1011.57
2018-10-01T10:36:06.869Z,1011.6
2018-10-01T10:37:15.512Z,1011.65
2018-10-01T10:38:24.162Z,1011.58
2018-10-01T10:39:32.815Z,1011.76
2018-10-01T10:40:41.905Z,1011.69
2018-10-01T10:41:50.597Z,1011.69
2018-10-01T10:42:59.547Z,1011.74
2018-10-01T10:44:08.211Z,1011.67
2018-10-01T10:45:17.246Z,1011.75
2018-10-01T10:46:25.891Z,1011.68
2018-10-01T10:47:34.537Z,1011.7
2018-10-01T10:48:43.438Z,1011.68
2018-10-01T10:49:52.081Z,1011.71
2018-10-01T10:51:00.722Z,1011.66
2018-10-01T10:52:09.373Z,1011.74
2018-10-01T10:53:18.011Z,1011.75
2018-10-01T10:54:26.917Z,1011.7
2018-10-01T10:55:35.559Z,1011.81
2018-10-01T10:56:44.212Z,1011.72
2018-10-01T10:57:52.851Z,1011.75
2018-10-01T10:59:01.496Z,1011.76
2018-10-01T11:00:10.134Z,1011.79
2018-10-01T11:01:18.816Z,1011.78
2018-10-01T11:02:27.512Z,1011.8
2018-10-01T11:03:36.098Z,1011.78
2018-10-01T11:04:44.739Z,1011.78
2018-10-01T11:05:53.379Z,1011.83
2018-10-01T11:07:02.029Z,1011.81
2018-10-01T11:08:10.736Z,1011.95
2018-10-01T11:09:19.325Z,1012.05
2018-10-01T11:10:28.233Z,1012.02
2018-10-01T11:11:36.881Z,1012.1
2018-10-01T11:12:45.524Z,1012.16
2018-10-01T11:13:54.662Z,1012.15
2018-10-01T11:15:05.878Z,1012.2
2018-10-01T11:16:16.660Z,1012.25
2018-10-01T11:17:27.329Z,1012.25
2018-10-01T11:18:36.957Z,1012.17
2018-10-01T11:19:47.272Z,1012.21
2018-10-01T11:20:57.618Z,1012.2
2018-10-01T11:22:07.157Z,1012.2
2018-10-01T11:23:16.806Z,1012.2
2018-10-01T11:24:26.072Z,1012.24
2018-10-01T11:25:35.841Z,1012.2
2018-10-01T11:26:45.442Z,1012.27
2018-10-01T11:27:55.629Z,1012.29
2018-10-01T11:29:05.564Z,1012.24
2018-10-01T11:30:14.689Z,1012.23
2018-10-01T11:31:23.980Z,1012.25
2018-10-01T11:32:33.703Z,1012.22
2018-10-01T11:33:43.258Z,1012.25
2018-10-01T11:34:52.971Z,1012.29
2018-10-01T11:36:02.638Z,1012.26
2018-10-01T11:37:11.483Z,1012.23
2018-10-01T11:38:20.415Z,1012.28
2018-10-01T11:39:29.597Z,1012.22
2018-10-01T11:40:38.895Z,1012.24
2018-10-01T11:41:47.667Z,1012.12
2018-10-01T11:42:56.985Z,1012.21
2018-10-01T11:44:06.138Z,1012.23
2018-10-01T11:45:15.459Z,1012.22
2018-10-01T11:46:24.594Z,1012.22
2018-10-01T11:47:33.970Z,1012.27
2018-10-01T11:48:44.125Z,1012.19
2018-10-01T11:49:53.651Z,1012.19
2018-10-01T11:51:02.856Z,1012.21
2018-10-01T11:53:51.109Z,1012.23
2018-10-01T11:55:00.296Z,1012.21
2018-10-01T11:56:09.431Z,1012.24
2018-10-01T11:57:19.364Z,1012.24
2018-10-01T11:58:28.535Z,1012.26
2018-10-01T11:59:38.030Z,1012.23
2018-10-01T12:00:47.633Z,1012.24
2018-10-01T12:01:57.105Z,1012.29
2018-10-01T12:03:06.934Z,1012.26
2018-10-01T12:04:16.595Z,1012.27
2018-10-01T12:05:26.373Z,1012.23
2018-10-01T12:06:35.724Z,1012.16
2018-10-01T12:07:45.023Z,1012.26
2018-10-01T12:08:55.059Z,1012.22
2018-10-01T12:10:04.329Z,1012.26
2018-10-01T12:11:13.887Z,1012.18
2018-10-01T12:12:23.780Z,1012.2
2018-10-01T12:13:32.862Z,1012.24
2018-10-01T12:14:41.900Z,1012.25
2018-10-01T12:15:50.716Z,1012.24
2018-10-01T12:16:59.180Z,1012.33
2018-10-01T12:18:07.820Z,1012.29
2018-10-01T12:19:16.476Z,1012.29
2018-10-01T12:20:25.113Z,1012.34
2018-10-01T12:21:33.765Z,1012.35
2018-10-01T12:22:42.397Z,1012.29
2018-10-01T12:23:51.044Z,1012.27
2018-10-01T12:24:59.684Z,1012.27
2018-10-01T12:26:08.330Z,1012.28
2018-10-01T12:27:17.338Z,1012.27
2018-10-01T12:28:25.873Z,1012.24
2018-10-01T12:29:34.522Z,1012.22
2018-10-01T12:30:43.432Z,1012.23
2018-10-01T12:31:52.077Z,1012.17
2018-10-01T12:33:00.993Z,1012.2
2018-10-01T12:34:09.626Z,1012.15
2018-10-01T12:35:18.265Z,1012.09
2018-10-01T12:36:27.209Z,1012.12
2018-10-01T12:37:35.843Z,1012.12
2018-10-01T12:38:44.755Z,1012.13
2018-10-01T12:39:53.394Z,1012.07
2018-10-01T12:41:02.047Z,1012.14
2018-10-01T12:42:10.680Z,1012.09
2018-10-01T12:43:19.325Z,1012.1
2018-10-01T12:44:27.967Z,1012.14
2018-10-01T12:45:36.679Z,1012.07
2018-10-01T12:46:45.729Z,1012.12
2018-10-01T12:47:54.631Z,1012.23
2018-10-01T12:49:03.272Z,1012.17
2018-10-01T12:50:11.926Z,1012.14
2018-10-01T12:51:20.662Z,1012.12
2018-10-01T12:52:29.581Z,1012.13
2018-10-01T12:53:38.224Z,1012.19
2018-10-01T12:54:47.119Z,1012.17
2018-10-01T12:55:55.771Z,1012.15
2018-10-01T12:57:04.473Z,1012.06
2018-10-01T12:58:13.058Z,1012.13
2018-10-01T12:59:21.726Z,1012.09
2018-10-01T13:00:31.080Z,1012.19
2018-10-01T13:01:39.716Z,1012.23
2018-10-01T13:02:48.362Z,1012.19
2018-10-01T13:03:56.999Z,1012.16
2018-10-01T13:05:05.710Z,1012.18
2018-10-01T13:06:15.232Z,1012.18
2018-10-01T13:07:23.727Z,1012.17
2018-10-01T13:08:32.373Z,1012.18
2018-10-01T13:09:41.284Z,1012.28
2018-10-01T13:10:49.932Z,1012.16
2018-10-01T13:11:58.623Z,1012.26
2018-10-01T13:13:08.256Z,1012.23
2018-10-01T13:14:16.893Z,1012.26
2018-10-01T13:15:25.540Z,1012.27
2018-10-01T13:16:34.332Z,1012.29
2018-10-01T13:17:43.841Z,1012.25
2018-10-01T13:18:53.813Z,1012.29
2018-10-01T13:20:03.462Z,1012.31
2018-10-01T13:21:12.892Z,1012.25
2018-10-01T13:22:22.427Z,1012.28
2018-10-01T13:23:31.720Z,1012.32
2018-10-01T13:24:41.412Z,1012.22
2018-10-01T13:25:50.855Z,1012.32
2018-10-01T13:27:00.434Z,1012.27
2018-10-01T13:28:10.134Z,1012.22
2018-10-01T13:29:19.302Z,1012.34
2018-10-01T13:30:28.499Z,1012.46
2018-10-01T13:31:37.742Z,1012.5
2018-10-01T13:32:46.978Z,1012.53
2018-10-01T13:33:56.201Z,1012.44
2018-10-01T13:35:05.609Z,1012.54
2018-10-01T13:36:14.355Z,1012.47
2018-10-01T13:37:24.248Z,1012.52
2018-10-01T13:38:33.478Z,1012.47
2018-10-01T13:39:42.794Z,1012.46
2018-10-01T13:40:52.149Z,1012.52
2018-10-01T13:42:01.774Z,1012.51
2018-10-01T13:43:11.417Z,1012.51
2018-10-01T13:44:20.635Z,1012.48
2018-10-01T13:45:30.546Z,1012.48
2018-10-01T13:46:39.812Z,1012.46
2018-10-01T13:47:49.982Z,1012.43
2018-10-01T13:48:59.255Z,1012.44
2018-10-01T13:50:08.911Z,1012.43
2018-10-01T13:51:18.157Z,1012.4
2018-10-01T13:52:27.464Z,1012.38
2018-10-01T13:53:36.758Z,1012.36
2018-10-01T13:54:47.092Z,1012.34
2018-10-01T13:55:56.951Z,1012.42
2018-10-01T13:57:06.603Z,1012.41